createdAt,value
2022-09-03T00:01:55.200Z,20.18
2022-09-03T00:04:32.928Z,20.14
2022-09-03T00:07:08.955Z,20.02
2022-09-03T00:09:43.907Z,20.05
2022-09-03T00:12:19.712Z,19.93
2022-09-03T00:15:01.891Z,19.87
2022-09-03T00:17:41.084Z,19.81
2022-09-03T00:20:11.918Z,19.81
2022-09-03T00:22:58.658Z,19.72
2022-09-03T00:25:43.028Z,19.82
2022-09-03T00:28:19.365Z,19.81
2022-09-03T00:30:53.986Z,19.72
2022-09-03T00:33:28.584Z,19.70
2022-09-03T00:36:02.103Z,19.81
2022-09-03T00:38:30.662Z,19.71
2022-09-03T00:41:03.893Z,19.71
2022-09-03T00:43:52.845Z,19.70
2022-09-03T00:46:27.633Z,19.69
2022-09-03T00:49:16.788Z,19.67
2022-09-03T00:51:56.237Z,19.68
2022-09-03T00:54:40.523Z,19.55
2022-09-03T00:57:44.339Z,19.56
2022-09-03T01:00:22.792Z,19.49
2022-09-03T01:03:08.066Z,19.53
2022-09-03T01:05:38.513Z,19.53
2022-09-03T01:08:33.895Z,19.41
2022-09-03T01:11:04.298Z,19.42
2022-09-03T01:13:43.798Z,19.31
2022-09-03T01:16:47.058Z,19.29
2022-09-03T01:19:35.655Z,19.31
2022-09-03T01:22:28.924Z,19.24
2022-09-03T01:25:18.302Z,19.23
2022-09-03T01:28:02.036Z,19.19
2022-09-03T01:30:38.260Z,19.15
2022-09-03T01:33:14.451Z,19.13
2022-09-03T01:35:47.279Z,19.17
2022-09-03T01:38:47.059Z,19.08
2022-09-03T01:42:20.454Z,19.14
2022-09-03T01:45:30.877Z,19.08
2022-09-03T01:48:33.017Z,19.07
2022-09-03T01:51:21.643Z,18.95
2022-09-03T01:54:23.692Z,18.90
2022-09-03T01:57:35.200Z,18.89
2022-09-03T02:00:13.904Z,18.83
2022-09-03T02:02:46.507Z,18.78
2022-09-03T02:05:32.165Z,18.76
2022-09-03T02:08:07.261Z,18.72
2022-09-03T02:10:52.405Z,18.70
2022-09-03T02:13:28.439Z,18.68
2022-09-03T02:16:03.185Z,18.70
2022-09-03T02:18:38.875Z,18.63
2022-09-03T02:21:07.185Z,18.60
2022-09-03T02:23:34.628Z,18.57
2022-09-03T02:26:03.740Z,18.61
2022-09-03T02:28:32.771Z,18.54
2022-09-03T02:31:00.093Z,18.55
2022-09-03T02:33:28.301Z,18.52
2022-09-03T02:35:55.880Z,18.47
2022-09-03T02:38:26.416Z,18.44
2022-09-03T02:40:54.527Z,18.40
2022-09-03T02:43:42.016Z,18.38
2022-09-03T02:46:17.155Z,18.32
2022-09-03T02:48:45.301Z,18.35
2022-09-03T02:51:13.841Z,18.34
2022-09-03T02:53:42.922Z,18.31
2022-09-03T02:56:10.332Z,18.34
2022-09-03T02:58:37.739Z,18.34
2022-09-03T03:01:05.702Z,18.26
2022-09-03T03:03:33.144Z,18.26
2022-09-03T03:06:04.631Z,18.22
2022-09-03T03:08:34.785Z,18.20
2022-09-03T03:11:02.252Z,18.17
2022-09-03T03:13:31.542Z,18.10
2022-09-03T03:16:06.391Z,18.10
2022-09-03T03:18:34.383Z,18.06
2022-09-03T03:21:10.855Z,18.06
2022-09-03T03:23:39.678Z,18.05
2022-09-03T03:26:13.259Z,18.02
2022-09-03T03:28:42.388Z,18.04
2022-09-03T03:31:23.561Z,18.00
2022-09-03T03:34:00.463Z,18.03
2022-09-03T03:36:31.724Z,17.93
2022-09-03T03:39:01.006Z,17.99
2022-09-03T03:41:34.415Z,18.07
2022-09-03T03:44:06.477Z,17.98
2022-09-03T03:46:40.224Z,17.94
2022-09-03T03:49:09.788Z,17.92
2022-09-03T03:51:38.369Z,17.88
2022-09-03T03:54:06.378Z,17.87
2022-09-03T03:56:36.864Z,17.85
2022-09-03T03:59:04.440Z,17.84
2022-09-03T04:01:34.482Z,17.77
2022-09-03T04:04:01.654Z,17.75
2022-09-03T04:06:29.701Z,17.78
2022-09-03T04:08:56.885Z,17.79
2022-09-03T04:11:25.431Z,17.85
2022-09-03T04:13:52.954Z,17.83
2022-09-03T04:16:28.171Z,17.89
2022-09-03T04:19:00.953Z,17.88
2022-09-03T04:21:30.100Z,17.86
2022-09-03T04:23:58.484Z,17.90
2022-09-03T04:26:31.572Z,17.90
2022-09-03T04:29:05.677Z,17.95
2022-09-03T04:31:34.915Z,17.93
2022-09-03T04:34:02.141Z,17.95
2022-09-03T04:36:31.053Z,17.90
2022-09-03T04:39:01.737Z,17.95
2022-09-03T04:41:31.579Z,17.94
2022-09-03T04:44:00.470Z,17.96
2022-09-03T04:46:33.503Z,17.94
2022-09-03T04:49:02.393Z,17.97
2022-09-03T04:51:31.291Z,17.99
2022-09-03T04:54:01.304Z,17.99
2022-09-03T04:56:35.490Z,18.04
2022-09-03T04:59:07.548Z,18.06
2022-09-03T05:01:37.837Z,18.10
2022-09-03T05:04:06.517Z,18.08
2022-09-03T05:06:35.103Z,18.09
2022-09-03T05:09:03.075Z,18.11
2022-09-03T05:11:30.737Z,18.08
2022-09-03T05:14:00.406Z,18.09
2022-09-03T05:16:30.129Z,18.13
2022-09-03T05:18:59.938Z,18.11
2022-09-03T05:21:28.656Z,18.10
2022-09-03T05:23:55.834Z,18.14
2022-09-03T05:26:27.366Z,18.15
2022-09-03T05:29:02.903Z,18.12
2022-09-03T05:31:32.139Z,18.15
2022-09-03T05:34:02.779Z,18.15
2022-09-03T05:36:34.754Z,18.14
2022-09-03T05:39:02.164Z,18.13
2022-09-03T05:41:30.061Z,18.21
2022-09-03T05:43:59.175Z,18.21
2022-09-03T05:46:32.793Z,18.18
2022-09-03T05:49:06.397Z,18.22
2022-09-03T05:51:36.613Z,18.19
2022-09-03T05:54:03.999Z,18.22
2022-09-03T05:56:33.536Z,18.27
2022-09-03T05:59:05.574Z,18.29
2022-09-03T06:01:51.647Z,18.30
2022-09-03T06:04:20.372Z,18.34
2022-09-03T06:06:49.049Z,18.34
2022-09-03T06:09:19.851Z,18.39
2022-09-03T06:11:50.138Z,18.42
2022-09-03T06:14:17.721Z,18.44
2022-09-03T06:16:52.838Z,18.48
2022-09-03T06:19:20.418Z,18.52
2022-09-03T06:21:48.268Z,18.56
2022-09-03T06:24:26.401Z,18.68
2022-09-03T06:26:56.661Z,18.69
2022-09-03T06:29:23.687Z,18.76
2022-09-03T06:31:51.321Z,18.78
2022-09-03T06:34:18.805Z,18.93
2022-09-03T06:36:46.609Z,18.93
2022-09-03T06:39:13.616Z,19.04
2022-09-03T06:41:40.691Z,19.15
2022-09-03T06:44:11.931Z,19.19
2022-09-03T06:46:42.819Z,19.27
2022-09-03T06:49:11.871Z,19.37
2022-09-03T06:51:39.664Z,19.47
2022-09-03T06:54:09.420Z,19.59
2022-09-03T06:56:40.745Z,19.62
2022-09-03T06:59:14.270Z,19.75
2022-09-03T07:01:45.418Z,19.91
2022-09-03T07:04:16.907Z,20.04
2022-09-03T07:06:47.409Z,20.21
2022-09-03T07:09:15.883Z,20.32
2022-09-03T07:11:47.999Z,20.44
2022-09-03T07:14:18.447Z,20.54
2022-09-03T07:16:46.312Z,20.64
2022-09-03T07:19:13.765Z,20.61
2022-09-03T07:21:46.505Z,20.72
2022-09-03T07:24:16.693Z,20.76
2022-09-03T07:26:46.492Z,20.84
2022-09-03T07:29:15.924Z,20.94
2022-09-03T07:31:44.014Z,21.08
2022-09-03T07:34:13.944Z,21.16
2022-09-03T07:36:48.894Z,21.26
2022-09-03T07:39:18.644Z,21.44
2022-09-03T07:41:46.992Z,21.53
2022-09-03T07:44:19.320Z,21.60
2022-09-03T07:46:47.871Z,21.84
2022-09-03T07:49:15.212Z,21.92
2022-09-03T07:51:42.344Z,22.18
2022-09-03T07:54:11.730Z,22.24
2022-09-03T07:56:40.694Z,22.24
2022-09-03T07:59:09.055Z,22.28
2022-09-03T08:01:38.389Z,22.32
2022-09-03T08:04:09.534Z,22.41
2022-09-03T08:06:38.525Z,22.49
2022-09-03T08:09:09.737Z,22.60
2022-09-03T08:11:39.028Z,22.63
2022-09-03T08:14:09.701Z,22.67
2022-09-03T08:16:42.916Z,22.77
2022-09-03T08:19:12.056Z,22.83
2022-09-03T08:21:41.827Z,22.95
2022-09-03T08:24:11.114Z,23.07
2022-09-03T08:26:50.677Z,23.19
2022-09-03T08:29:19.279Z,23.27
2022-09-03T08:31:46.527Z,23.41
2022-09-03T08:34:14.805Z,23.57
2022-09-03T08:36:42.226Z,23.71
2022-09-03T08:39:11.323Z,23.78
2022-09-03T08:41:53.632Z,23.88
2022-09-03T08:44:40.282Z,23.98
2022-09-03T08:47:44.112Z,24.14
2022-09-03T08:50:29.426Z,24.19
2022-09-03T08:53:19.663Z,24.32
2022-09-03T08:55:55.018Z,24.45
2022-09-03T08:58:27.481Z,24.55
2022-09-03T09:01:34.308Z,24.66
2022-09-03T09:04:07.478Z,24.77
2022-09-03T09:06:52.049Z,24.95
2022-09-03T09:10:00.529Z,25.06
2022-09-03T09:12:46.968Z,25.24
2022-09-03T09:15:30.410Z,25.43
2022-09-03T09:18:11.539Z,25.51
2022-09-03T09:20:57.944Z,25.58
2022-09-03T09:23:57.847Z,25.83
2022-09-03T09:26:28.646Z,25.83
2022-09-03T09:29:10.165Z,26.10
2022-09-03T09:31:45.973Z,26.10
2022-09-03T09:34:15.390Z,26.20
2022-09-03T09:36:54.451Z,26.35
2022-09-03T09:39:32.127Z,26.35
2022-09-03T09:42:12.967Z,26.59
2022-09-03T09:44:44.878Z,26.62
2022-09-03T09:47:31.084Z,26.74
2022-09-03T09:50:02.466Z,26.85
2022-09-03T09:52:31.818Z,26.88
2022-09-03T09:55:19.444Z,26.98
2022-09-03T09:58:04.453Z,27.26
2022-09-03T10:00:37.545Z,27.41
2022-09-03T10:03:13.801Z,27.56
2022-09-03T10:05:58.479Z,27.45
2022-09-03T10:08:31.103Z,27.40
2022-09-03T10:11:05.282Z,27.46
2022-09-03T10:13:45.979Z,27.54
2022-09-03T10:16:30.370Z,27.63
2022-09-03T10:19:17.187Z,27.68
2022-09-03T10:22:19.817Z,27.86
2022-09-03T10:24:59.557Z,27.92
2022-09-03T10:27:30.163Z,27.93
2022-09-03T10:30:09.010Z,28.05
2022-09-03T10:33:19.147Z,28.24
2022-09-03T10:36:04.001Z,28.38
2022-09-03T10:38:41.219Z,28.48
2022-09-03T10:41:32.801Z,28.48
2022-09-03T10:44:35.419Z,29.00
2022-09-03T10:48:04.963Z,28.75
2022-09-03T10:51:04.296Z,28.85
2022-09-03T10:53:55.302Z,28.97
2022-09-03T10:56:51.017Z,29.09
2022-09-03T10:59:35.981Z,29.11
2022-09-03T11:02:33.416Z,29.38
2022-09-03T11:05:22.840Z,29.47
2022-09-03T11:07:59.207Z,29.53
2022-09-03T11:10:42.093Z,29.52
2022-09-03T11:13:20.441Z,29.68
2022-09-03T11:16:04.662Z,29.59
2022-09-03T11:18:40.684Z,29.82
2022-09-03T11:21:13.701Z,29.87
2022-09-03T11:24:13.835Z,29.95
2022-09-03T11:26:48.443Z,30.09
2022-09-03T11:29:25.309Z,30.01
2022-09-03T11:32:10.992Z,30.25
2022-09-03T11:34:54.799Z,30.17
2022-09-03T11:37:23.945Z,30.21
2022-09-03T11:40:11.835Z,30.04
2022-09-03T11:42:45.126Z,30.15
2022-09-03T11:45:30.168Z,30.16
2022-09-03T11:47:59.297Z,30.25
2022-09-03T11:50:33.700Z,30.14
2022-09-03T11:53:19.792Z,30.24
2022-09-03T11:56:14.506Z,30.25
2022-09-03T11:58:43.527Z,30.40
2022-09-03T12:01:18.802Z,30.75
2022-09-03T12:03:58.452Z,30.70
2022-09-03T12:06:56.958Z,30.56
2022-09-03T12:09:42.900Z,30.29
2022-09-03T12:12:29.611Z,30.49
2022-09-03T12:15:35.774Z,30.36
2022-09-03T12:18:19.519Z,30.62
2022-09-03T12:21:06.755Z,30.63
2022-09-03T12:23:42.242Z,30.74
2022-09-03T12:26:19.992Z,30.57
2022-09-03T12:28:56.218Z,30.66
2022-09-03T12:31:31.470Z,30.79
2022-09-03T12:34:10.863Z,30.92
2022-09-03T12:36:42.027Z,31.01
2022-09-03T12:39:17.895Z,30.99
2022-09-03T12:42:06.544Z,30.82
2022-09-03T12:44:42.239Z,30.77
2022-09-03T12:50:13.763Z,30.91
2022-09-03T12:53:01.808Z,31.11
2022-09-03T12:55:45.331Z,30.86
2022-09-03T12:58:28.385Z,31.01
2022-09-03T13:01:17.048Z,31.25
2022-09-03T13:03:50.063Z,31.21
2022-09-03T13:06:23.135Z,30.99
2022-09-03T13:08:54.995Z,31.03
2022-09-03T13:11:24.640Z,31.00
2022-09-03T13:13:55.365Z,30.97
2022-09-03T13:16:45.238Z,31.06
2022-09-03T13:19:37.710Z,31.10
2022-09-03T13:22:43.496Z,31.01
2022-09-03T13:25:16.375Z,30.96
2022-09-03T13:28:07.282Z,31.06
2022-09-03T13:31:29.003Z,31.21
2022-09-03T13:34:09.629Z,31.18
2022-09-03T13:36:56.135Z,31.13
2022-09-03T13:39:52.574Z,31.13
2022-09-03T13:42:41.852Z,31.15
2022-09-03T13:45:27.431Z,31.19
2022-09-03T13:48:21.276Z,31.29
2022-09-03T13:51:14.684Z,31.05
2022-09-03T13:54:11.607Z,30.93
2022-09-03T13:57:01.140Z,30.76
2022-09-03T13:59:52.719Z,30.76
2022-09-03T14:02:36.891Z,30.65
2022-09-03T14:05:11.884Z,30.60
2022-09-03T14:07:45.392Z,30.74
2022-09-03T14:10:21.952Z,30.78
2022-09-03T14:13:02.236Z,30.95
2022-09-03T14:16:00.715Z,31.06
2022-09-03T14:18:39.887Z,30.96
2022-09-03T14:21:22.689Z,31.14
2022-09-03T14:24:01.723Z,31.17
2022-09-03T14:26:39.155Z,30.95
2022-09-03T14:29:14.316Z,30.84
2022-09-03T14:31:44.788Z,30.66
2022-09-03T14:34:31.290Z,30.61
2022-09-03T14:37:09.773Z,30.54
2022-09-03T14:40:03.264Z,30.54
2022-09-03T14:42:40.905Z,30.59
2022-09-03T14:45:08.217Z,30.56
2022-09-03T14:48:06.351Z,30.55
2022-09-03T14:50:41.124Z,30.61
2022-09-03T14:53:29.890Z,30.73
2022-09-03T14:56:38.617Z,30.66
2022-09-03T14:59:40.486Z,30.62
2022-09-03T15:02:31.805Z,30.70
2022-09-03T15:05:12.388Z,30.72
2022-09-03T15:07:45.535Z,30.62
2022-09-03T15:10:23.507Z,30.51
2022-09-03T15:13:09.673Z,30.37
2022-09-03T15:15:54.432Z,30.35
2022-09-03T15:18:30.716Z,30.25
2022-09-03T15:21:13.424Z,30.27
2022-09-03T15:23:54.851Z,30.35
2022-09-03T15:26:43.028Z,30.30
2022-09-03T15:29:22.864Z,30.18
2022-09-03T15:32:06.546Z,30.14
2022-09-03T15:34:57.933Z,30.11
2022-09-03T15:37:42.537Z,30.09
2022-09-03T15:40:27.851Z,30.09
2022-09-03T15:43:23.811Z,30.03
2022-09-03T15:45:59.414Z,29.99
2022-09-03T15:48:48.701Z,30.04
2022-09-03T15:51:47.174Z,30.06
2022-09-03T15:54:31.841Z,29.98
2022-09-03T15:57:17.736Z,30.08
2022-09-03T16:00:11.620Z,30.01
2022-09-03T16:03:00.929Z,29.93
2022-09-03T16:05:45.654Z,29.85
2022-09-03T16:08:46.811Z,29.74
2022-09-03T16:11:27.100Z,29.59
2022-09-03T16:13:59.495Z,29.57
2022-09-03T16:16:52.444Z,29.46
2022-09-03T16:19:24.181Z,29.42
2022-09-03T16:22:19.408Z,29.39
2022-09-03T16:25:03.714Z,29.32
2022-09-03T16:28:11.427Z,29.30
2022-09-03T16:30:50.520Z,29.21
2022-09-03T16:33:23.696Z,29.16
2022-09-03T16:36:07.345Z,29.10
2022-09-03T16:39:12.843Z,29.06
2022-09-03T16:42:18.659Z,29.03
2022-09-03T16:44:54.650Z,28.99
2022-09-03T16:48:09.929Z,28.89
2022-09-03T16:50:51.963Z,28.89
2022-09-03T16:53:44.238Z,28.80
2022-09-03T16:56:25.900Z,28.74
2022-09-03T16:58:53.643Z,28.68
2022-09-03T17:01:30.269Z,28.69
2022-09-03T17:04:45.253Z,28.68
2022-09-03T17:07:36.986Z,28.60
2022-09-03T17:10:45.856Z,28.54
2022-09-03T17:13:24.933Z,28.46
2022-09-03T17:16:31.969Z,28.44
2022-09-03T17:19:47.559Z,28.38
2022-09-03T17:22:39.835Z,28.32
2022-09-03T17:25:24.535Z,28.25
2022-09-03T17:28:24.779Z,28.18
2022-09-03T17:31:06.446Z,28.07
2022-09-03T17:33:36.403Z,27.99
2022-09-03T17:36:22.326Z,27.99
2022-09-03T17:38:59.559Z,27.88
2022-09-03T17:41:34.745Z,27.79
2022-09-03T17:44:18.624Z,27.65
2022-09-03T17:47:06.456Z,27.62
2022-09-03T17:49:50.506Z,27.63
2022-09-03T17:52:23.738Z,27.64
2022-09-03T17:55:00.129Z,27.59
2022-09-03T17:57:52.051Z,27.49
2022-09-03T18:00:59.056Z,27.52
2022-09-03T18:03:39.611Z,27.53
2022-09-03T18:06:34.593Z,27.50
2022-09-03T18:09:22.249Z,27.45
2022-09-03T18:12:26.112Z,27.37
2022-09-03T18:15:16.617Z,27.29
2022-09-03T18:18:04.164Z,27.18
2022-09-03T18:21:22.951Z,27.09
2022-09-03T18:24:38.903Z,27.08
2022-09-03T18:27:45.614Z,26.84
2022-09-03T18:30:33.714Z,26.64
2022-09-03T18:33:22.143Z,26.52
2022-09-03T18:36:10.186Z,26.29
2022-09-03T18:39:00.369Z,26.14
2022-09-03T18:42:23.876Z,26.00
2022-09-03T18:45:49.074Z,25.88
2022-09-03T18:48:53.446Z,25.77
2022-09-03T18:52:32.266Z,25.64
2022-09-03T18:55:20.123Z,25.52
2022-09-03T18:58:20.663Z,25.45
2022-09-03T19:01:26.521Z,25.27
2022-09-03T19:04:31.662Z,25.12
2022-09-03T19:07:31.256Z,25.06
2022-09-03T19:10:29.960Z,24.92
2022-09-03T19:13:30.834Z,24.92
2022-09-03T19:16:30.591Z,24.79
2022-09-03T19:19:25.986Z,24.72
2022-09-03T19:22:35.140Z,24.67
2022-09-03T19:25:29.990Z,24.58
2022-09-03T19:28:33.547Z,24.49
2022-09-03T19:31:31.061Z,24.41
2022-09-03T19:34:49.244Z,24.38
2022-09-03T19:37:50.245Z,24.35
2022-09-03T19:40:52.724Z,24.27
2022-09-03T19:44:02.271Z,24.16
2022-09-03T19:47:08.042Z,24.11
2022-09-03T19:50:13.776Z,24.12
2022-09-03T19:53:14.412Z,24.09
2022-09-03T19:56:07.864Z,24.02
2022-09-03T19:59:00.576Z,23.97
2022-09-03T20:01:53.768Z,23.87
2022-09-03T20:04:48.986Z,23.78
2022-09-03T20:07:38.676Z,23.73
2022-09-03T20:10:24.946Z,23.73
2022-09-03T20:13:19.377Z,23.74
2022-09-03T20:16:21.968Z,23.76
2022-09-03T20:19:28.349Z,23.67
2022-09-03T20:22:16.404Z,23.59
2022-09-03T20:24:59.682Z,23.57
2022-09-03T20:28:03.804Z,23.46
2022-09-03T20:30:37.130Z,23.47
2022-09-03T20:33:24.801Z,23.41
2022-09-03T20:36:09.664Z,23.31
2022-09-03T20:38:53.322Z,23.31
2022-09-03T20:41:49.084Z,23.29
2022-09-03T20:44:58.430Z,23.24
2022-09-03T20:47:36.478Z,23.21
2022-09-03T20:51:01.447Z,23.15
2022-09-03T20:53:43.348Z,23.13
2022-09-03T20:56:54.141Z,23.25
2022-09-03T21:00:04.792Z,23.23
2022-09-03T21:02:58.772Z,23.20
2022-09-03T21:05:50.193Z,23.15
2022-09-03T21:08:46.247Z,23.08
2022-09-03T21:11:29.579Z,23.05
2022-09-03T21:14:17.481Z,23.03
2022-09-03T21:17:00.154Z,22.96
2022-09-03T21:20:16.906Z,22.91
2022-09-03T21:23:13.121Z,22.89
2022-09-03T21:25:52.276Z,22.84
2022-09-03T21:28:40.419Z,22.88
2022-09-03T21:31:39.031Z,22.83
2022-09-03T21:34:19.286Z,22.79
2022-09-03T21:36:48.707Z,22.80
2022-09-03T21:39:34.136Z,22.80
2022-09-03T21:42:17.730Z,22.71
2022-09-03T21:45:00.327Z,22.65
2022-09-03T21:47:31.738Z,22.60
2022-09-03T21:50:16.503Z,22.54
2022-09-03T21:53:02.955Z,22.49
2022-09-03T21:55:35.752Z,22.48
2022-09-03T21:58:19.681Z,22.47
2022-09-03T22:00:51.959Z,22.44
2022-09-03T22:03:20.236Z,22.40
2022-09-03T22:06:25.155Z,22.37
2022-09-03T22:09:24.544Z,22.31
2022-09-03T22:12:06.826Z,22.29
2022-09-03T22:14:46.386Z,22.25
2022-09-03T22:17:28.434Z,22.23
2022-09-03T22:19:56.246Z,22.22
2022-09-03T22:22:57.546Z,22.22
2022-09-03T22:25:45.162Z,22.15
2022-09-03T22:28:42.192Z,22.11
2022-09-03T22:31:33.263Z,22.09
2022-09-03T22:34:24.920Z,22.07
2022-09-03T22:37:06.725Z,22.06
2022-09-03T22:39:39.629Z,22.03
2022-09-03T22:42:15.202Z,22.01
2022-09-03T22:44:51.180Z,22.00
2022-09-03T22:47:29.966Z,21.92
2022-09-03T22:50:25.130Z,21.92
2022-09-03T22:53:34.255Z,21.87
2022-09-03T22:56:09.535Z,21.84
2022-09-03T22:58:48.520Z,21.81
2022-09-03T23:01:34.810Z,21.78
2022-09-03T23:04:22.795Z,21.74
2022-09-03T23:07:19.956Z,21.70
2022-09-03T23:10:24.389Z,21.68
2022-09-03T23:13:09.540Z,21.69
2022-09-03T23:15:41.801Z,21.68
2022-09-03T23:18:15.433Z,21.67
2022-09-03T23:20:55.356Z,21.63
2022-09-03T23:23:53.962Z,21.59
2022-09-03T23:26:51.478Z,21.56
2022-09-03T23:29:40.419Z,21.56
2022-09-03T23:32:09.418Z,21.57
2022-09-03T23:34:40.555Z,21.54
2022-09-03T23:37:34.232Z,21.47
2022-09-03T23:40:19.276Z,21.42
2022-09-03T23:43:14.562Z,21.36
2022-09-03T23:46:07.121Z,21.30
2022-09-03T23:48:55.730Z,21.25
2022-09-03T23:51:53.658Z,21.28
2022-09-03T23:54:45.204Z,21.22
2022-09-03T23:57:38.482Z,21.15
